sensor_id;sensor_type;location;lat;lon;timestamp;temperature;humidity
35635;DHT22;21757;43.610;1.440;2024-02-14T00:02:17;8.60;1.00
35635;DHT22;21757;43.610;1.440;2024-02-14T00:04:43;8.60;1.00
35635;DHT22;21757;43.610;1.440;2024-02-14T00:07:08;8.60;1.00
35635;DHT22;21757;43.610;1.440;2024-02-14T00:09:34;8.60;1.00
35635;DHT22;21757;43.610;1.440;2024-02-14T00:12:00;8.50;1.00
35635;DHT22;21757;43.610;1.440;2024-02-14T00:14:26;8.50;1.00
35635;DHT22;21757;43.610;1.440;2024-02-14T00:16:52;8.40;1.00
35635;DHT22;21757;43.610;1.440;2024-02-14T00:19:18;8.40;1.00
35635;DHT22;21757;43.610;1.440;2024-02-14T00:21:43;8.40;1.00
35635;DHT22;21757;43.610;1.440;2024-02-14T00:24:10;8.40;1.00
35635;DHT22;21757;43.610;1.440;2024-02-14T00:26:37;8.30;1.00
35635;DHT22;21757;43.610;1.440;2024-02-14T00:29:04;8.30;1.00
35635;DHT22;21757;43.610;1.440;2024-02-14T00:31:30;8.30;1.00
35635;DHT22;21757;43.610;1.440;2024-02-14T00:33:56;8.20;1.00
35635;DHT22;21757;43.610;1.440;2024-02-14T00:36:21;8.20;1.00
35635;DHT22;21757;43.610;1.440;2024-02-14T00:38:47;8.20;1.00
35635;DHT22;21757;43.610;1.440;2024-02-14T00:41:13;8.20;1.00
35635;DHT22;21757;43.610;1.440;2024-02-14T00:43:38;8.20;1.00
35635;DHT22;21757;43.610;1.440;2024-02-14T00:46:04;8.20;1.00
35635;DHT22;21757;43.610;1.440;2024-02-14T00:48:31;8.20;1.00
35635;DHT22;21757;43.610;1.440;2024-02-14T00:50:57;8.20;1.00
35635;DHT22;21757;43.610;1.440;2024-02-14T00:53:22;8.10;1.00
35635;DHT22;21757;43.610;1.440;2024-02-14T00:55:48;8.10;1.00
35635;DHT22;21757;43.610;1.440;2024-02-14T00:58:14;8.10;1.00
35635;DHT22;21757;43.610;1.440;2024-02-14T01:00:39;8.00;1.00
35635;DHT22;21757;43.610;1.440;2024-02-14T01:03:06;8.00;1.00
35635;DHT22;21757;43.610;1.440;2024-02-14T01:05:32;7.90;1.00
35635;DHT22;21757;43.610;1.440;2024-02-14T01:07:57;7.90;1.00
35635;DHT22;21757;43.610;1.440;2024-02-14T01:10:23;7.90;1.00
35635;DHT22;21757;43.610;1.440;2024-02-14T01:12:49;7.80;1.00
35635;DHT22;21757;43.610;1.440;2024-02-14T01:15:14;7.90;1.00
35635;DHT22;21757;43.610;1.440;2024-02-14T01:17:40;7.80;1.00
35635;DHT22;21757;43.610;1.440;2024-02-14T01:20:06;7.80;1.00
35635;DHT22;21757;43.610;1.440;2024-02-14T01:22:34;7.80;1.00
35635;DHT22;21757;43.610;1.440;2024-02-14T01:25:01;7.80;1.00
35635;DHT22;21757;43.610;1.440;2024-02-14T01:27:26;7.80;1.00
35635;DHT22;21757;43.610;1.440;2024-02-14T01:29:53;7.80;1.00
35635;DHT22;21757;43.610;1.440;2024-02-14T01:32:20;7.80;1.00
35635;DHT22;21757;43.610;1.440;2024-02-14T01:34:46;7.90;1.00
35635;DHT22;21757;43.610;1.440;2024-02-14T01:37:11;7.90;1.00
35635;DHT22;21757;43.610;1.440;2024-02-14T01:39:37;7.90;1.00
35635;DHT22;21757;43.610;1.440;2024-02-14T01:42:03;7.90;1.00
35635;DHT22;21757;43.610;1.440;2024-02-14T01:44:32;7.90;1.00
35635;DHT22;21757;43.610;1.440;2024-02-14T01:46:59;8.00;1.00
35635;DHT22;21757;43.610;1.440;2024-02-14T01:49:25;7.90;1.00
35635;DHT22;21757;43.610;1.440;2024-02-14T01:51:55;7.90;1.00
35635;DHT22;21757;43.610;1.440;2024-02-14T01:54:24;7.90;1.00
35635;DHT22;21757;43.610;1.440;2024-02-14T01:56:50;7.80;1.00
35635;DHT22;21757;43.610;1.440;2024-02-14T01:59:15;7.80;1.00
35635;DHT22;21757;43.610;1.440;2024-02-14T02:01:42;7.70;1.00
35635;DHT22;21757;43.610;1.440;2024-02-14T02:04:08;7.70;1.00
35635;DHT22;21757;43.610;1.440;2024-02-14T02:06:34;7.70;1.00
35635;DHT22;21757;43.610;1.440;2024-02-14T02:09:00;7.70;1.00
35635;DHT22;21757;43.610;1.440;2024-02-14T02:11:26;7.60;1.00
35635;DHT22;21757;43.610;1.440;2024-02-14T02:13:52;7.70;1.00
35635;DHT22;21757;43.610;1.440;2024-02-14T02:16:18;7.60;1.00
35635;DHT22;21757;43.610;1.440;2024-02-14T02:18:45;7.70;1.00
35635;DHT22;21757;43.610;1.440;2024-02-14T02:21:11;7.80;1.00
35635;DHT22;21757;43.610;1.440;2024-02-14T02:23:38;7.70;1.00
35635;DHT22;21757;43.610;1.440;2024-02-14T02:26:06;7.70;1.00
35635;DHT22;21757;43.610;1.440;2024-02-14T02:28:31;7.70;1.00
35635;DHT22;21757;43.610;1.440;2024-02-14T02:30:57;7.70;1.00
35635;DHT22;21757;43.610;1.440;2024-02-14T02:33:23;7.60;1.00
35635;DHT22;21757;43.610;1.440;2024-02-14T02:35:50;7.70;1.00
35635;DHT22;21757;43.610;1.440;2024-02-14T02:38:16;7.60;1.00
35635;DHT22;21757;43.610;1.440;2024-02-14T02:40:43;7.70;1.00
35635;DHT22;21757;43.610;1.440;2024-02-14T02:43:09;7.70;1.00
35635;DHT22;21757;43.610;1.440;2024-02-14T02:45:35;7.60;1.00
35635;DHT22;21757;43.610;1.440;2024-02-14T02:48:01;7.60;1.00
35635;DHT22;21757;43.610;1.440;2024-02-14T02:50:28;7.60;1.00
35635;DHT22;21757;43.610;1.440;2024-02-14T02:52:54;7.60;1.00
35635;DHT22;21757;43.610;1.440;2024-02-14T02:55:20;7.50;1.00
35635;DHT22;21757;43.610;1.440;2024-02-14T02:57:46;7.50;1.00
35635;DHT22;21757;43.610;1.440;2024-02-14T03:00:12;7.50;1.00
35635;DHT22;21757;43.610;1.440;2024-02-14T03:02:41;7.50;1.00
35635;DHT22;21757;43.610;1.440;2024-02-14T03:05:10;7.50;1.00
35635;DHT22;21757;43.610;1.440;2024-02-14T03:07:36;7.40;1.00
35635;DHT22;21757;43.610;1.440;2024-02-14T03:10:03;7.40;1.00
35635;DHT22;21757;43.610;1.440;2024-02-14T03:12:29;7.30;1.00
35635;DHT22;21757;43.610;1.440;2024-02-14T03:14:57;7.30;1.00
35635;DHT22;21757;43.610;1.440;2024-02-14T03:17:23;7.30;1.00
35635;DHT22;21757;43.610;1.440;2024-02-14T03:19:49;7.40;1.00
35635;DHT22;21757;43.610;1.440;2024-02-14T03:22:17;7.40;1.00
35635;DHT22;21757;43.610;1.440;2024-02-14T03:24:44;7.40;1.00
35635;DHT22;21757;43.610;1.440;2024-02-14T03:27:12;7.40;1.00
35635;DHT22;21757;43.610;1.440;2024-02-14T03:29:38;7.30;1.00
35635;DHT22;21757;43.610;1.440;2024-02-14T03:32:05;7.30;1.00
35635;DHT22;21757;43.610;1.440;2024-02-14T03:34:31;7.40;1.00
35635;DHT22;21757;43.610;1.440;2024-02-14T03:37:01;7.40;1.00
35635;DHT22;21757;43.610;1.440;2024-02-14T03:39:28;7.40;1.00
35635;DHT22;21757;43.610;1.440;2024-02-14T03:41:54;7.40;1.00
35635;DHT22;21757;43.610;1.440;2024-02-14T03:46:56;7.30;1.00
35635;DHT22;21757;43.610;1.440;2024-02-14T03:49:22;7.20;1.00
35635;DHT22;21757;43.610;1.440;2024-02-14T03:51:47;7.20;1.00
35635;DHT22;21757;43.610;1.440;2024-02-14T03:54:14;7.10;1.00
35635;DHT22;21757;43.610;1.440;2024-02-14T03:56:40;7.10;1.00
35635;DHT22;21757;43.610;1.440;2024-02-14T03:59:06;7.10;1.00
35635;DHT22;21757;43.610;1.440;2024-02-14T04:01:33;7.10;1.00
35635;DHT22;21757;43.610;1.440;2024-02-14T04:03:59;7.10;1.00
35635;DHT22;21757;43.610;1.440;2024-02-14T04:06:25;7.20;1.00
35635;DHT22;21757;43.610;1.440;2024-02-14T04:08:52;7.20;1.00
35635;DHT22;21757;43.610;1.440;2024-02-14T04:11:17;7.20;1.00
35635;DHT22;21757;43.610;1.440;2024-02-14T04:13:43;7.20;1.00
35635;DHT22;21757;43.610;1.440;2024-02-14T04:16:09;7.20;1.00
35635;DHT22;21757;43.610;1.440;2024-02-14T04:18:34;7.10;1.00
35635;DHT22;21757;43.610;1.440;2024-02-14T04:21:00;7.10;1.00
35635;DHT22;21757;43.610;1.440;2024-02-14T04:23:29;7.20;1.00
35635;DHT22;21757;43.610;1.440;2024-02-14T04:25:55;7.10;1.00
35635;DHT22;21757;43.610;1.440;2024-02-14T04:28:20;7.10;1.00
35635;DHT22;21757;43.610;1.440;2024-02-14T04:30:47;7.10;1.00
35635;DHT22;21757;43.610;1.440;2024-02-14T04:33:13;7.00;1.00
35635;DHT22;21757;43.610;1.440;2024-02-14T04:35:39;7.00;1.00
35635;DHT22;21757;43.610;1.440;2024-02-14T04:38:05;6.90;1.00
35635;DHT22;21757;43.610;1.440;2024-02-14T04:40:30;6.90;1.00
35635;DHT22;21757;43.610;1.440;2024-02-14T04:42:56;6.90;1.00
35635;DHT22;21757;43.610;1.440;2024-02-14T04:45:21;6.90;1.00
35635;DHT22;21757;43.610;1.440;2024-02-14T04:47:47;7.00;1.00
35635;DHT22;21757;43.610;1.440;2024-02-14T04:50:13;7.00;1.00
35635;DHT22;21757;43.610;1.440;2024-02-14T04:52:39;7.00;1.00
35635;DHT22;21757;43.610;1.440;2024-02-14T04:55:05;7.00;1.00
35635;DHT22;21757;43.610;1.440;2024-02-14T04:57:31;7.00;1.00
35635;DHT22;21757;43.610;1.440;2024-02-14T04:59:57;7.00;1.00
35635;DHT22;21757;43.610;1.440;2024-02-14T05:02:23;7.00;1.00
35635;DHT22;21757;43.610;1.440;2024-02-14T05:04:48;7.00;1.00
35635;DHT22;21757;43.610;1.440;2024-02-14T05:07:14;7.00;1.00
35635;DHT22;21757;43.610;1.440;2024-02-14T05:09:41;7.00;1.00
35635;DHT22;21757;43.610;1.440;2024-02-14T05:12:07;6.90;1.00
35635;DHT22;21757;43.610;1.440;2024-02-14T05:14:38;6.90;1.00
35635;DHT22;21757;43.610;1.440;2024-02-14T05:17:03;7.00;1.00
35635;DHT22;21757;43.610;1.440;2024-02-14T05:19:30;6.90;1.00
35635;DHT22;21757;43.610;1.440;2024-02-14T05:21:55;6.80;1.00
35635;DHT22;21757;43.610;1.440;2024-02-14T05:24:21;6.70;1.00
35635;DHT22;21757;43.610;1.440;2024-02-14T05:26:47;6.70;1.00
35635;DHT22;21757;43.610;1.440;2024-02-14T05:29:12;6.70;1.00
35635;DHT22;21757;43.610;1.440;2024-02-14T05:31:46;6.70;1.00
35635;DHT22;21757;43.610;1.440;2024-02-14T05:34:12;6.70;1.00
35635;DHT22;21757;43.610;1.440;2024-02-14T05:36:38;6.70;1.00
35635;DHT22;21757;43.610;1.440;2024-02-14T05:39:04;6.70;1.00
35635;DHT22;21757;43.610;1.440;2024-02-14T05:41:31;6.60;1.00
35635;DHT22;21757;43.610;1.440;2024-02-14T05:43:58;6.70;1.00
35635;DHT22;21757;43.610;1.440;2024-02-14T05:46:24;6.60;1.00
35635;DHT22;21757;43.610;1.440;2024-02-14T05:48:50;6.60;1.00
35635;DHT22;21757;43.610;1.440;2024-02-14T05:51:17;6.60;1.00
35635;DHT22;21757;43.610;1.440;2024-02-14T05:53:43;6.60;1.00
35635;DHT22;21757;43.610;1.440;2024-02-14T05:56:09;6.60;1.00
35635;DHT22;21757;43.610;1.440;2024-02-14T05:58:34;6.50;1.00
35635;DHT22;21757;43.610;1.440;2024-02-14T06:01:01;6.50;1.00
35635;DHT22;21757;43.610;1.440;2024-02-14T06:03:26;6.50;1.00
35635;DHT22;21757;43.610;1.440;2024-02-14T06:05:52;6.40;1.00
35635;DHT22;21757;43.610;1.440;2024-02-14T06:08:18;6.50;1.00
35635;DHT22;21757;43.610;1.440;2024-02-14T06:10:44;6.40;1.00
35635;DHT22;21757;43.610;1.440;2024-02-14T06:13:10;6.40;1.00
35635;DHT22;21757;43.610;1.440;2024-02-14T06:15:35;6.40;1.00
35635;DHT22;21757;43.610;1.440;2024-02-14T06:18:01;6.30;1.00
35635;DHT22;21757;43.610;1.440;2024-02-14T06:20:27;6.30;1.00
35635;DHT22;21757;43.610;1.440;2024-02-14T06:22:52;6.20;1.00
35635;DHT22;21757;43.610;1.440;2024-02-14T06:25:20;6.30;1.00
35635;DHT22;21757;43.610;1.440;2024-02-14T06:27:45;6.40;1.00
35635;DHT22;21757;43.610;1.440;2024-02-14T06:30:11;6.40;1.00
35635;DHT22;21757;43.610;1.440;2024-02-14T06:32:37;6.40;1.00
35635;DHT22;21757;43.610;1.440;2024-02-14T06:35:03;6.40;1.00
35635;DHT22;21757;43.610;1.440;2024-02-14T06:37:29;6.30;1.00
35635;DHT22;21757;43.610;1.440;2024-02-14T06:39:54;6.30;1.00
35635;DHT22;21757;43.610;1.440;2024-02-14T06:42:20;6.20;1.00
35635;DHT22;21757;43.610;1.440;2024-02-14T06:44:46;6.20;1.00
35635;DHT22;21757;43.610;1.440;2024-02-14T06:47:11;6.30;1.00
35635;DHT22;21757;43.610;1.440;2024-02-14T06:49:37;6.30;1.00
35635;DHT22;21757;43.610;1.440;2024-02-14T06:52:03;6.30;1.00
35635;DHT22;21757;43.610;1.440;2024-02-14T06:54:29;6.40;1.00
35635;DHT22;21757;43.610;1.440;2024-02-14T06:56:54;6.40;1.00
35635;DHT22;21757;43.610;1.440;2024-02-14T06:59:20;6.40;1.00
35635;DHT22;21757;43.610;1.440;2024-02-14T07:01:46;6.40;1.00
35635;DHT22;21757;43.610;1.440;2024-02-14T07:04:12;6.40;1.00
35635;DHT22;21757;43.610;1.440;2024-02-14T07:06:38;6.40;1.00
35635;DHT22;21757;43.610;1.440;2024-02-14T07:09:04;6.40;1.00
35635;DHT22;21757;43.610;1.440;2024-02-14T07:11:29;6.30;1.00
35635;DHT22;21757;43.610;1.440;2024-02-14T07:13:55;6.40;1.00
35635;DHT22;21757;43.610;1.440;2024-02-14T07:16:21;6.40;1.00
35635;DHT22;21757;43.610;1.440;2024-02-14T07:18:47;6.40;1.00
35635;DHT22;21757;43.610;1.440;2024-02-14T07:21:13;6.40;1.00
35635;DHT22;21757;43.610;1.440;2024-02-14T07:23:40;6.40;1.00
35635;DHT22;21757;43.610;1.440;2024-02-14T07:26:05;6.40;1.00
35635;DHT22;21757;43.610;1.440;2024-02-14T07:28:32;6.50;1.00
35635;DHT22;21757;43.610;1.440;2024-02-14T07:30:58;6.60;1.00
35635;DHT22;21757;43.610;1.440;2024-02-14T07:33:23;6.60;1.00
35635;DHT22;21757;43.610;1.440;2024-02-14T07:35:49;6.70;1.00
35635;DHT22;21757;43.610;1.440;2024-02-14T07:38:15;6.70;1.00
35635;DHT22;21757;43.610;1.440;2024-02-14T07:40:42;6.80;1.00
35635;DHT22;21757;43.610;1.440;2024-02-14T07:43:07;6.80;1.00
35635;DHT22;21757;43.610;1.440;2024-02-14T07:45:33;6.90;1.00
35635;DHT22;21757;43.610;1.440;2024-02-14T07:47:59;7.00;1.00
35635;DHT22;21757;43.610;1.440;2024-02-14T07:50:24;7.00;1.00
35635;DHT22;21757;43.610;1.440;2024-02-14T07:52:50;7.10;1.00
35635;DHT22;21757;43.610;1.440;2024-02-14T07:55:16;7.10;1.00
35635;DHT22;21757;43.610;1.440;2024-02-14T07:57:42;7.20;1.00
35635;DHT22;21757;43.610;1.440;2024-02-14T08:00:09;7.30;1.00
35635;DHT22;21757;43.610;1.440;2024-02-14T08:02:35;7.30;1.00
35635;DHT22;21757;43.610;1.440;2024-02-14T08:05:02;7.40;1.00
35635;DHT22;21757;43.610;1.440;2024-02-14T08:07:27;7.50;1.00
35635;DHT22;21757;43.610;1.440;2024-02-14T08:09:54;7.50;1.00
35635;DHT22;21757;43.610;1.440;2024-02-14T08:12:19;7.60;1.00
35635;DHT22;21757;43.610;1.440;2024-02-14T08:14:45;7.70;1.00
35635;DHT22;21757;43.610;1.440;2024-02-14T08:17:12;7.80;1.00
35635;DHT22;21757;43.610;1.440;2024-02-14T08:19:38;7.90;1.00
35635;DHT22;21757;43.610;1.440;2024-02-14T08:22:05;7.90;1.00
35635;DHT22;21757;43.610;1.440;2024-02-14T08:24:31;8.00;1.00
35635;DHT22;21757;43.610;1.440;2024-02-14T08:26:57;8.00;1.00
35635;DHT22;21757;43.610;1.440;2024-02-14T08:29:23;8.10;1.00
35635;DHT22;21757;43.610;1.440;2024-02-14T08:31:49;8.10;1.00
35635;DHT22;21757;43.610;1.440;2024-02-14T08:34:15;8.10;1.00
35635;DHT22;21757;43.610;1.440;2024-02-14T08:36:44;8.20;1.00
35635;DHT22;21757;43.610;1.440;2024-02-14T08:39:10;8.20;1.00
35635;DHT22;21757;43.610;1.440;2024-02-14T08:41:39;8.30;1.00
35635;DHT22;21757;43.610;1.440;2024-02-14T08:44:09;8.30;1.00
35635;DHT22;21757;43.610;1.440;2024-02-14T08:46:35;8.30;1.00
35635;DHT22;21757;43.610;1.440;2024-02-14T08:49:01;8.30;1.00
35635;DHT22;21757;43.610;1.440;2024-02-14T08:51:37;8.40;1.00
35635;DHT22;21757;43.610;1.440;2024-02-14T08:54:06;8.40;1.00
35635;DHT22;21757;43.610;1.440;2024-02-14T08:56:32;8.50;1.00
35635;DHT22;21757;43.610;1.440;2024-02-14T08:59:01;8.50;1.00
35635;DHT22;21757;43.610;1.440;2024-02-14T09:01:32;8.60;1.00
35635;DHT22;21757;43.610;1.440;2024-02-14T09:03:58;8.70;1.00
35635;DHT22;21757;43.610;1.440;2024-02-14T09:06:24;8.70;1.00
35635;DHT22;21757;43.610;1.440;2024-02-14T09:08:52;8.70;1.00
35635;DHT22;21757;43.610;1.440;2024-02-14T09:11:18;8.70;1.00
35635;DHT22;21757;43.610;1.440;2024-02-14T09:13:44;8.80;1.00
35635;DHT22;21757;43.610;1.440;2024-02-14T09:16:10;8.90;1.00
35635;DHT22;21757;43.610;1.440;2024-02-14T09:18:36;8.90;1.00
35635;DHT22;21757;43.610;1.440;2024-02-14T09:21:02;9.00;1.00
35635;DHT22;21757;43.610;1.440;2024-02-14T09:23:31;9.20;1.00
35635;DHT22;21757;43.610;1.440;2024-02-14T09:25:58;9.20;1.00
35635;DHT22;21757;43.610;1.440;2024-02-14T09:28:23;9.20;1.00
35635;DHT22;21757;43.610;1.440;2024-02-14T09:30:51;9.20;1.00
35635;DHT22;21757;43.610;1.440;2024-02-14T09:33:16;9.40;1.00
35635;DHT22;21757;43.610;1.440;2024-02-14T09:35:42;9.40;1.00
35635;DHT22;21757;43.610;1.440;2024-02-14T09:38:11;9.40;1.00
35635;DHT22;21757;43.610;1.440;2024-02-14T09:40:43;9.40;1.00
35635;DHT22;21757;43.610;1.440;2024-02-14T09:43:28;9.40;1.00
35635;DHT22;21757;43.610;1.440;2024-02-14T09:45:58;9.40;1.00
35635;DHT22;21757;43.610;1.440;2024-02-14T09:48:23;9.60;1.00
35635;DHT22;21757;43.610;1.440;2024-02-14T09:50:52;9.70;1.00
35635;DHT22;21757;43.610;1.440;2024-02-14T09:53:19;9.90;1.00
35635;DHT22;21757;43.610;1.440;2024-02-14T09:55:52;10.00;1.00
35635;DHT22;21757;43.610;1.440;2024-02-14T09:58:18;10.20;1.00
35635;DHT22;21757;43.610;1.440;2024-02-14T10:00:45;10.30;1.00
35635;DHT22;21757;43.610;1.440;2024-02-14T10:03:11;10.30;1.00
35635;DHT22;21757;43.610;1.440;2024-02-14T10:05:37;10.40;1.00
35635;DHT22;21757;43.610;1.440;2024-02-14T10:08:03;10.50;1.00
35635;DHT22;21757;43.610;1.440;2024-02-14T10:10:31;10.70;1.00
35635;DHT22;21757;43.610;1.440;2024-02-14T10:12:57;10.80;1.00
35635;DHT22;21757;43.610;1.440;2024-02-14T10:15:23;10.90;1.00
35635;DHT22;21757;43.610;1.440;2024-02-14T10:17:49;11.00;1.00
35635;DHT22;21757;43.610;1.440;2024-02-14T10:20:18;11.10;1.00
35635;DHT22;21757;43.610;1.440;2024-02-14T10:22:45;11.10;1.00
35635;DHT22;21757;43.610;1.440;2024-02-14T10:25:11;11.10;1.00
35635;DHT22;21757;43.610;1.440;2024-02-14T10:27:38;11.10;1.00
35635;DHT22;21757;43.610;1.440;2024-02-14T10:30:08;11.20;1.00
35635;DHT22;21757;43.610;1.440;2024-02-14T10:32:39;11.30;1.00
35635;DHT22;21757;43.610;1.440;2024-02-14T10:35:08;11.40;1.00
35635;DHT22;21757;43.610;1.440;2024-02-14T10:37:37;11.40;1.00
35635;DHT22;21757;43.610;1.440;2024-02-14T10:40:03;11.50;1.00
35635;DHT22;21757;43.610;1.440;2024-02-14T10:42:30;11.50;1.00
35635;DHT22;21757;43.610;1.440;2024-02-14T10:44:56;11.60;1.00
35635;DHT22;21757;43.610;1.440;2024-02-14T10:47:25;11.70;1.00
35635;DHT22;21757;43.610;1.440;2024-02-14T10:49:59;11.70;1.00
35635;DHT22;21757;43.610;1.440;2024-02-14T10:52:26;11.90;1.00
35635;DHT22;21757;43.610;1.440;2024-02-14T10:54:56;12.00;1.00
35635;DHT22;21757;43.610;1.440;2024-02-14T10:57:24;12.00;1.00
35635;DHT22;21757;43.610;1.440;2024-02-14T10:59:51;12.10;1.00
35635;DHT22;21757;43.610;1.440;2024-02-14T11:02:18;12.30;1.00
35635;DHT22;21757;43.610;1.440;2024-02-14T11:04:45;12.40;1.00
35635;DHT22;21757;43.610;1.440;2024-02-14T11:07:11;12.40;1.00
35635;DHT22;21757;43.610;1.440;2024-02-14T11:09:38;12.50;1.00
35635;DHT22;21757;43.610;1.440;2024-02-14T11:12:10;12.70;1.00
35635;DHT22;21757;43.610;1.440;2024-02-14T11:14:36;12.70;1.00
35635;DHT22;21757;43.610;1.440;2024-02-14T11:17:09;12.80;1.00
35635;DHT22;21757;43.610;1.440;2024-02-14T11:19:35;12.80;1.00
35635;DHT22;21757;43.610;1.440;2024-02-14T11:22:16;12.90;1.00
35635;DHT22;21757;43.610;1.440;2024-02-14T11:24:46;13.00;1.00
35635;DHT22;21757;43.610;1.440;2024-02-14T11:27:12;13.20;1.00
35635;DHT22;21757;43.610;1.440;2024-02-14T11:29:50;13.20;99.90
35635;DHT22;21757;43.610;1.440;2024-02-14T11:32:17;13.40;99.90
35635;DHT22;21757;43.610;1.440;2024-02-14T11:34:44;13.50;99.90
35635;DHT22;21757;43.610;1.440;2024-02-14T11:37:20;13.50;99.90
35635;DHT22;21757;43.610;1.440;2024-02-14T11:39:52;13.80;99.90
35635;DHT22;21757;43.610;1.440;2024-02-14T11:42:20;13.80;99.90
35635;DHT22;21757;43.610;1.440;2024-02-14T11:44:46;13.90;99.90
35635;DHT22;21757;43.610;1.440;2024-02-14T11:47:11;14.00;99.90
35635;DHT22;21757;43.610;1.440;2024-02-14T11:49:37;14.00;99.90
35635;DHT22;21757;43.610;1.440;2024-02-14T11:52:04;14.20;99.90
35635;DHT22;21757;43.610;1.440;2024-02-14T11:54:30;14.20;99.90
35635;DHT22;21757;43.610;1.440;2024-02-14T11:57:00;14.30;99.90
35635;DHT22;21757;43.610;1.440;2024-02-14T11:59:26;14.50;1.00
35635;DHT22;21757;43.610;1.440;2024-02-14T12:01:52;14.50;99.90
35635;DHT22;21757;43.610;1.440;2024-02-14T12:04:19;14.50;99.90
35635;DHT22;21757;43.610;1.440;2024-02-14T12:06:45;14.60;99.90
35635;DHT22;21757;43.610;1.440;2024-02-14T12:09:11;14.80;99.90
35635;DHT22;21757;43.610;1.440;2024-02-14T12:11:40;14.80;1.00
35635;DHT22;21757;43.610;1.440;2024-02-14T12:14:08;14.80;99.90
35635;DHT22;21757;43.610;1.440;2024-02-14T12:16:36;14.80;99.90
35635;DHT22;21757;43.610;1.440;2024-02-14T12:19:09;15.00;99.90
35635;DHT22;21757;43.610;1.440;2024-02-14T12:21:39;15.00;99.90
35635;DHT22;21757;43.610;1.440;2024-02-14T12:24:09;15.10;99.90
35635;DHT22;21757;43.610;1.440;2024-02-14T12:26:39;15.20;99.90
35635;DHT22;21757;43.610;1.440;2024-02-14T12:29:06;15.20;99.90
35635;DHT22;21757;43.610;1.440;2024-02-14T12:31:33;15.30;99.90
35635;DHT22;21757;43.610;1.440;2024-02-14T12:34:00;15.40;99.90
35635;DHT22;21757;43.610;1.440;2024-02-14T12:36:31;15.70;99.90
35635;DHT22;21757;43.610;1.440;2024-02-14T12:38:58;15.60;99.90
35635;DHT22;21757;43.610;1.440;2024-02-14T12:41:28;15.70;99.90
35635;DHT22;21757;43.610;1.440;2024-02-14T12:43:55;15.80;99.90
35635;DHT22;21757;43.610;1.440;2024-02-14T12:46:21;15.80;99.90
35635;DHT22;21757;43.610;1.440;2024-02-14T12:48:46;15.80;99.90
35635;DHT22;21757;43.610;1.440;2024-02-14T12:51:14;15.70;99.90
35635;DHT22;21757;43.610;1.440;2024-02-14T12:53:40;15.80;99.90
35635;DHT22;21757;43.610;1.440;2024-02-14T12:56:07;15.90;99.90
35635;DHT22;21757;43.610;1.440;2024-02-14T12:58:33;15.90;99.90
35635;DHT22;21757;43.610;1.440;2024-02-14T13:00:59;15.90;1.00
35635;DHT22;21757;43.610;1.440;2024-02-14T13:03:26;16.00;99.90
35635;DHT22;21757;43.610;1.440;2024-02-14T13:05:53;16.10;99.90
35635;DHT22;21757;43.610;1.440;2024-02-14T13:08:21;16.30;99.90
35635;DHT22;21757;43.610;1.440;2024-02-14T13:10:46;16.40;99.90
35635;DHT22;21757;43.610;1.440;2024-02-14T13:13:12;16.60;99.90
35635;DHT22;21757;43.610;1.440;2024-02-14T13:15:39;16.80;99.90
35635;DHT22;21757;43.610;1.440;2024-02-14T13:18:06;16.80;99.90
35635;DHT22;21757;43.610;1.440;2024-02-14T13:20:31;16.60;99.90
35635;DHT22;21757;43.610;1.440;2024-02-14T13:22:57;16.60;99.90
35635;DHT22;21757;43.610;1.440;2024-02-14T13:25:23;16.50;99.90
35635;DHT22;21757;43.610;1.440;2024-02-14T13:27:49;16.80;99.90
35635;DHT22;21757;43.610;1.440;2024-02-14T13:30:15;16.70;99.90
35635;DHT22;21757;43.610;1.440;2024-02-14T13:32:41;16.70;1.00
35635;DHT22;21757;43.610;1.440;2024-02-14T13:35:07;16.80;1.00
35635;DHT22;21757;43.610;1.440;2024-02-14T13:37:33;16.90;99.90
35635;DHT22;21757;43.610;1.440;2024-02-14T13:39:59;17.30;99.90
35635;DHT22;21757;43.610;1.440;2024-02-14T13:42:26;17.30;99.90
35635;DHT22;21757;43.610;1.440;2024-02-14T13:44:52;17.50;99.90
35635;DHT22;21757;43.610;1.440;2024-02-14T13:47:19;17.50;99.90
35635;DHT22;21757;43.610;1.440;2024-02-14T13:49:46;17.40;99.90
35635;DHT22;21757;43.610;1.440;2024-02-14T13:52:11;17.20;99.90
35635;DHT22;21757;43.610;1.440;2024-02-14T13:54:37;17.10;99.90
35635;DHT22;21757;43.610;1.440;2024-02-14T13:57:03;17.00;99.90
35635;DHT22;21757;43.610;1.440;2024-02-14T13:59:32;17.50;99.90
35635;DHT22;21757;43.610;1.440;2024-02-14T14:01:58;17.60;99.90
35635;DHT22;21757;43.610;1.440;2024-02-14T14:04:23;17.60;99.90
35635;DHT22;21757;43.610;1.440;2024-02-14T14:06:51;17.60;99.90
35635;DHT22;21757;43.610;1.440;2024-02-14T14:09:16;17.40;99.90
35635;DHT22;21757;43.610;1.440;2024-02-14T14:11:42;17.40;99.90
35635;DHT22;21757;43.610;1.440;2024-02-14T14:14:08;17.40;99.90
35635;DHT22;21757;43.610;1.440;2024-02-14T14:16:34;17.80;99.90
35635;DHT22;21757;43.610;1.440;2024-02-14T14:19:00;18.00;99.90
35635;DHT22;21757;43.610;1.440;2024-02-14T14:21:26;17.90;99.90
35635;DHT22;21757;43.610;1.440;2024-02-14T14:23:52;18.20;99.90
35635;DHT22;21757;43.610;1.440;2024-02-14T14:26:18;18.50;99.90
35635;DHT22;21757;43.610;1.440;2024-02-14T14:28:45;18.30;99.90
35635;DHT22;21757;43.610;1.440;2024-02-14T14:31:12;18.10;99.90
35635;DHT22;21757;43.610;1.440;2024-02-14T14:33:37;18.00;99.90
35635;DHT22;21757;43.610;1.440;2024-02-14T14:36:04;18.00;99.90
35635;DHT22;21757;43.610;1.440;2024-02-14T14:38:30;17.90;99.90
35635;DHT22;21757;43.610;1.440;2024-02-14T14:40:57;17.90;99.90
35635;DHT22;21757;43.610;1.440;2024-02-14T14:43:24;17.90;99.90
35635;DHT22;21757;43.610;1.440;2024-02-14T14:45:50;17.90;99.90
35635;DHT22;21757;43.610;1.440;2024-02-14T14:48:18;18.00;99.90
35635;DHT22;21757;43.610;1.440;2024-02-14T14:50:44;17.90;99.90
35635;DHT22;21757;43.610;1.440;2024-02-14T14:53:10;17.90;99.90
35635;DHT22;21757;43.610;1.440;2024-02-14T14:55:55;17.90;99.90
35635;DHT22;21757;43.610;1.440;2024-02-14T14:58:22;17.90;99.90
35635;DHT22;21757;43.610;1.440;2024-02-14T15:00:52;17.90;99.90
35635;DHT22;21757;43.610;1.440;2024-02-14T15:03:20;17.90;99.90
35635;DHT22;21757;43.610;1.440;2024-02-14T15:05:46;17.90;99.90
35635;DHT22;21757;43.610;1.440;2024-02-14T15:08:13;17.90;99.90
35635;DHT22;21757;43.610;1.440;2024-02-14T15:10:39;17.90;99.90
35635;DHT22;21757;43.610;1.440;2024-02-14T15:13:06;17.80;99.90
35635;DHT22;21757;43.610;1.440;2024-02-14T15:15:34;17.70;99.90
35635;DHT22;21757;43.610;1.440;2024-02-14T15:18:00;17.60;99.90
35635;DHT22;21757;43.610;1.440;2024-02-14T15:20:26;17.60;99.90
35635;DHT22;21757;43.610;1.440;2024-02-14T15:22:52;17.50;99.90
35635;DHT22;21757;43.610;1.440;2024-02-14T15:25:17;17.50;99.90
35635;DHT22;21757;43.610;1.440;2024-02-14T15:27:43;17.40;99.90
35635;DHT22;21757;43.610;1.440;2024-02-14T15:30:23;17.40;99.90
35635;DHT22;21757;43.610;1.440;2024-02-14T15:33:08;17.40;99.90
35635;DHT22;21757;43.610;1.440;2024-02-14T15:35:53;17.40;99.90
35635;DHT22;21757;43.610;1.440;2024-02-14T15:38:19;17.40;99.90
35635;DHT22;21757;43.610;1.440;2024-02-14T15:40:46;17.30;99.90
35635;DHT22;21757;43.610;1.440;2024-02-14T15:43:13;17.30;99.90
35635;DHT22;21757;43.610;1.440;2024-02-14T15:45:38;17.20;99.90
35635;DHT22;21757;43.610;1.440;2024-02-14T15:48:04;17.10;99.90
35635;DHT22;21757;43.610;1.440;2024-02-14T15:50:30;17.00;99.90
35635;DHT22;21757;43.610;1.440;2024-02-14T15:52:57;17.10;99.90